sensor_id;sensor_type;location;lat;lon;timestamp;pressure;altitude;pressure_sealevel;temperature;humidity
23261;BME280;11799;47.740;-3.390;2023-02-13T00:01:14;103053.69;;;5.53;80.62
23261;BME280;11799;47.740;-3.390;2023-02-13T00:03:40;103054.59;;;5.51;80.63
23261;BME280;11799;47.740;-3.390;2023-02-13T00:06:06;103060.78;;;5.48;80.63
23261;BME280;11799;47.740;-3.390;2023-02-13T00:08:31;103071.19;;;5.51;80.45
23261;BME280;11799;47.740;-3.390;2023-02-13T00:10:57;103068.63;;;5.48;80.11
23261;BME280;11799;47.740;-3.390;2023-02-13T00:13:23;103076.44;;;5.51;80.39
23261;BME280;11799;47.740;-3.390;2023-02-13T00:15:56;103064.31;;;5.46;80.34
23261;BME280;11799;47.740;-3.390;2023-02-13T00:18:22;103070.47;;;5.45;80.62
23261;BME280;11799;47.740;-3.390;2023-02-13T00:23:23;103070.56;;;5.40;80.61
23261;BME280;11799;47.740;-3.390;2023-02-13T00:25:48;103060.09;;;5.39;80.55
23261;BME280;11799;47.740;-3.390;2023-02-13T00:28:14;103064.47;;;5.38;80.64
23261;BME280;11799;47.740;-3.390;2023-02-13T00:30:39;103051.38;;;5.38;80.44
23261;BME280;11799;47.740;-3.390;2023-02-13T00:33:05;103059.28;;;5.35;80.53
23261;BME280;11799;47.740;-3.390;2023-02-13T00:35:31;103054.91;;;5.36;80.20
23261;BME280;11799;47.740;-3.390;2023-02-13T00:37:57;103059.38;;;5.30;80.22
23261;BME280;11799;47.740;-3.390;2023-02-13T00:40:23;103049.81;;;5.29;80.29
23261;BME280;11799;47.740;-3.390;2023-02-13T00:42:49;103053.34;;;5.27;80.14
23261;BME280;11799;47.740;-3.390;2023-02-13T00:45:14;103048.03;;;5.30;80.25
23261;BME280;11799;47.740;-3.390;2023-02-13T00:47:40;103052.53;;;5.23;80.27
23261;BME280;11799;47.740;-3.390;2023-02-13T00:50:06;103053.44;;;5.22;80.12
23261;BME280;11799;47.740;-3.390;2023-02-13T00:52:31;103049.22;;;5.17;79.95
23261;BME280;11799;47.740;-3.390;2023-02-13T00:54:57;103045.84;;;5.10;79.65
23261;BME280;11799;47.740;-3.390;2023-02-13T00:57:22;103052.81;;;5.11;79.92
23261;BME280;11799;47.740;-3.390;2023-02-13T00:59:48;103055.41;;;5.13;80.05
23261;BME280;11799;47.740;-3.390;2023-02-13T01:02:14;103048.56;;;5.06;80.33
23261;BME280;11799;47.740;-3.390;2023-02-13T01:04:39;103045.03;;;5.07;80.19
23261;BME280;11799;47.740;-3.390;2023-02-13T01:07:05;103042.44;;;5.07;80.29
23261;BME280;11799;47.740;-3.390;2023-02-13T01:09:30;103039.19;;;4.94;80.20
23261;BME280;11799;47.740;-3.390;2023-02-13T01:11:56;103043.44;;;5.00;80.02
23261;BME280;11799;47.740;-3.390;2023-02-13T01:14:21;103042.53;;;5.01;80.31
23261;BME280;11799;47.740;-3.390;2023-02-13T01:16:48;103045.16;;;5.01;80.46
23261;BME280;11799;47.740;-3.390;2023-02-13T01:19:13;103040.06;;;4.93;80.13
23261;BME280;11799;47.740;-3.390;2023-02-13T01:21:39;103040.03;;;4.94;80.47
23261;BME280;11799;47.740;-3.390;2023-02-13T01:24:05;103035.72;;;4.92;80.40
23261;BME280;11799;47.740;-3.390;2023-02-13T01:26:30;103046.19;;;4.92;80.52
23261;BME280;11799;47.740;-3.390;2023-02-13T01:28:56;103052.31;;;4.91;80.62
23261;BME280;11799;47.740;-3.390;2023-02-13T01:31:22;103054.16;;;4.86;80.53
23261;BME280;11799;47.740;-3.390;2023-02-13T01:33:49;103052.44;;;4.85;80.22
23261;BME280;11799;47.740;-3.390;2023-02-13T01:36:14;103056.84;;;4.83;80.05
23261;BME280;11799;47.740;-3.390;2023-02-13T01:38:41;103060.31;;;4.83;80.15
23261;BME280;11799;47.740;-3.390;2023-02-13T01:41:07;103063.88;;;4.79;80.22
23261;BME280;11799;47.740;-3.390;2023-02-13T01:43:44;103069.22;;;4.73;80.06
23261;BME280;11799;47.740;-3.390;2023-02-13T01:46:10;103068.38;;;4.71;80.11
23261;BME280;11799;47.740;-3.390;2023-02-13T01:48:37;103073.59;;;4.73;80.59
23261;BME280;11799;47.740;-3.390;2023-02-13T01:51:07;103075.38;;;4.71;80.19
23261;BME280;11799;47.740;-3.390;2023-02-13T01:53:45;103070.13;;;4.71;80.46
23261;BME280;11799;47.740;-3.390;2023-02-13T01:58:40;103067.63;;;4.64;80.25
23261;BME280;11799;47.740;-3.390;2023-02-13T02:01:07;103058.09;;;4.62;80.55
23261;BME280;11799;47.740;-3.390;2023-02-13T02:03:50;103061.50;;;4.65;80.69
23261;BME280;11799;47.740;-3.390;2023-02-13T02:06:25;103061.63;;;4.59;80.85
23261;BME280;11799;47.740;-3.390;2023-02-13T02:08:54;103061.63;;;4.61;80.80
23261;BME280;11799;47.740;-3.390;2023-02-13T02:11:30;103060.81;;;4.57;80.82
23261;BME280;11799;47.740;-3.390;2023-02-13T02:13:57;103057.38;;;4.54;80.96
23261;BME280;11799;47.740;-3.390;2023-02-13T02:16:31;103063.50;;;4.53;81.21
23261;BME280;11799;47.740;-3.390;2023-02-13T02:19:00;103053.09;;;4.48;80.92
23261;BME280;11799;47.740;-3.390;2023-02-13T02:27:34;103057.47;;;4.48;81.26
23261;BME280;11799;47.740;-3.390;2023-02-13T02:32:59;103051.38;;;4.47;80.78
23261;BME280;11799;47.740;-3.390;2023-02-13T02:35:47;103042.69;;;4.45;81.47
23261;BME280;11799;47.740;-3.390;2023-02-13T02:46:28;103031.44;;;4.40;81.38
23261;BME280;11799;47.740;-3.390;2023-02-13T02:49:12;103033.13;;;4.43;81.20
23261;BME280;11799;47.740;-3.390;2023-02-13T02:54:43;103024.44;;;4.41;81.38
23261;BME280;11799;47.740;-3.390;2023-02-13T02:57:32;103023.63;;;4.39;81.40
23261;BME280;11799;47.740;-3.390;2023-02-13T03:00:19;103025.38;;;4.37;81.47
23261;BME280;11799;47.740;-3.390;2023-02-13T03:03:11;103025.44;;;4.34;81.75
23261;BME280;11799;47.740;-3.390;2023-02-13T03:06:00;103028.03;;;4.35;81.95
23261;BME280;11799;47.740;-3.390;2023-02-13T03:08:45;103017.66;;;4.30;81.82
23261;BME280;11799;47.740;-3.390;2023-02-13T03:11:34;103016.84;;;4.27;82.16
23261;BME280;11799;47.740;-3.390;2023-02-13T03:14:20;103015.91;;;4.29;81.85
23261;BME280;11799;47.740;-3.390;2023-02-13T03:16:47;103016.81;;;4.28;81.98
23261;BME280;11799;47.740;-3.390;2023-02-13T03:19:45;103012.50;;;4.26;81.99
23261;BME280;11799;47.740;-3.390;2023-02-13T03:25:29;103008.13;;;4.26;82.31
23261;BME280;11799;47.740;-3.390;2023-02-13T03:28:07;103016.00;;;4.23;82.29
23261;BME280;11799;47.740;-3.390;2023-02-13T03:34:30;103013.44;;;4.20;82.20
23261;BME280;11799;47.740;-3.390;2023-02-13T03:36:49;103004.75;;;4.20;82.18
23261;BME280;11799;47.740;-3.390;2023-02-13T03:42:29;103012.56;;;4.21;82.14
23261;BME280;11799;47.740;-3.390;2023-02-13T03:45:01;103018.75;;;4.16;82.49
23261;BME280;11799;47.740;-3.390;2023-02-13T03:47:50;103007.41;;;4.17;82.08
23261;BME280;11799;47.740;-3.390;2023-02-13T03:50:18;103007.38;;;4.18;82.33
23261;BME280;11799;47.740;-3.390;2023-02-13T03:52:46;103005.81;;;4.08;82.65
23261;BME280;11799;47.740;-3.390;2023-02-13T03:55:16;103004.88;;;4.12;82.40
23261;BME280;11799;47.740;-3.390;2023-02-13T03:58:10;103002.28;;;4.11;82.45
23261;BME280;11799;47.740;-3.390;2023-02-13T04:00:58;102997.97;;;4.08;82.55
23261;BME280;11799;47.740;-3.390;2023-02-13T04:03:48;102993.56;;;4.10;82.27
23261;BME280;11799;47.740;-3.390;2023-02-13T04:06:16;102999.59;;;4.14;82.55
23261;BME280;11799;47.740;-3.390;2023-02-13T04:08:44;102997.97;;;4.07;82.23
23261;BME280;11799;47.740;-3.390;2023-02-13T04:11:33;102999.75;;;4.05;82.06
23261;BME280;11799;47.740;-3.390;2023-02-13T04:14:06;102999.69;;;4.09;82.15
23261;BME280;11799;47.740;-3.390;2023-02-13T04:16:39;102998.00;;;4.05;82.17
23261;BME280;11799;47.740;-3.390;2023-02-13T04:19:07;102999.88;;;3.98;81.61
23261;BME280;11799;47.740;-3.390;2023-02-13T04:21:34;102994.69;;;3.95;81.83
23261;BME280;11799;47.740;-3.390;2023-02-13T04:24:01;103004.28;;;3.95;82.05
23261;BME280;11799;47.740;-3.390;2023-02-13T04:26:40;102995.56;;;3.96;81.84
23261;BME280;11799;47.740;-3.390;2023-02-13T04:29:07;102999.06;;;3.95;82.24
23261;BME280;11799;47.740;-3.390;2023-02-13T04:31:33;102994.78;;;3.89;81.80
23261;BME280;11799;47.740;-3.390;2023-02-13T04:33:58;102988.78;;;3.83;82.31
23261;BME280;11799;47.740;-3.390;2023-02-13T04:36:24;102988.75;;;3.86;82.20
23261;BME280;11799;47.740;-3.390;2023-02-13T04:38:50;102986.19;;;3.83;82.34
23261;BME280;11799;47.740;-3.390;2023-02-13T04:41:16;102987.94;;;3.82;82.12
23261;BME280;11799;47.740;-3.390;2023-02-13T04:43:41;102998.44;;;3.79;82.69
23261;BME280;11799;47.740;-3.390;2023-02-13T04:46:07;102995.00;;;3.76;82.49
23261;BME280;11799;47.740;-3.390;2023-02-13T04:48:32;102994.91;;;3.82;82.33
23261;BME280;11799;47.740;-3.390;2023-02-13T04:50:58;102995.88;;;3.75;82.09
23261;BME280;11799;47.740;-3.390;2023-02-13T04:53:24;102995.91;;;3.73;81.86
23261;BME280;11799;47.740;-3.390;2023-02-13T04:55:50;102994.19;;;3.72;82.50
23261;BME280;11799;47.740;-3.390;2023-02-13T04:58:16;103000.22;;;3.76;82.68
23261;BME280;11799;47.740;-3.390;2023-02-13T05:00:42;102992.41;;;3.74;82.47
23261;BME280;11799;47.740;-3.390;2023-02-13T05:03:10;102999.38;;;3.74;82.61
23261;BME280;11799;47.740;-3.390;2023-02-13T05:05:37;102995.06;;;3.71;82.12
23261;BME280;11799;47.740;-3.390;2023-02-13T05:08:03;102992.41;;;3.74;82.74
23261;BME280;11799;47.740;-3.390;2023-02-13T05:10:30;102996.88;;;3.66;82.46
23261;BME280;11799;47.740;-3.390;2023-02-13T05:12:55;103003.91;;;3.62;82.50
23261;BME280;11799;47.740;-3.390;2023-02-13T05:15:21;102996.09;;;3.59;82.26
23261;BME280;11799;47.740;-3.390;2023-02-13T05:17:48;102994.34;;;3.60;81.85
23261;BME280;11799;47.740;-3.390;2023-02-13T05:20:14;102995.25;;;3.57;81.62
23261;BME280;11799;47.740;-3.390;2023-02-13T05:22:47;103002.28;;;3.52;82.22
23261;BME280;11799;47.740;-3.390;2023-02-13T05:25:33;103003.16;;;3.53;82.30
23261;BME280;11799;47.740;-3.390;2023-02-13T05:27:58;103005.78;;;3.51;82.50
23261;BME280;11799;47.740;-3.390;2023-02-13T05:30:24;103003.19;;;3.50;82.50
23261;BME280;11799;47.740;-3.390;2023-02-13T05:32:49;102991.91;;;3.48;82.77
23261;BME280;11799;47.740;-3.390;2023-02-13T05:35:17;102989.25;;;3.51;82.94
23261;BME280;11799;47.740;-3.390;2023-02-13T05:37:42;103000.59;;;3.48;83.11
23261;BME280;11799;47.740;-3.390;2023-02-13T05:40:09;102995.34;;;3.50;83.47
23261;BME280;11799;47.740;-3.390;2023-02-13T05:42:35;102996.25;;;3.49;83.01
23261;BME280;11799;47.740;-3.390;2023-02-13T05:45:00;102984.13;;;3.46;83.42
23261;BME280;11799;47.740;-3.390;2023-02-13T05:47:26;102984.13;;;3.45;83.15
23261;BME280;11799;47.740;-3.390;2023-02-13T05:49:52;102976.34;;;3.42;83.56
23261;BME280;11799;47.740;-3.390;2023-02-13T05:52:17;102981.53;;;3.43;83.32
23261;BME280;11799;47.740;-3.390;2023-02-13T05:54:43;102978.13;;;3.38;83.52
23261;BME280;11799;47.740;-3.390;2023-02-13T05:57:08;102979.03;;;3.36;83.61
23261;BME280;11799;47.740;-3.390;2023-02-13T05:59:34;102981.66;;;3.36;83.47
23261;BME280;11799;47.740;-3.390;2023-02-13T06:02:00;102988.56;;;3.40;83.28
23261;BME280;11799;47.740;-3.390;2023-02-13T06:04:25;102990.38;;;3.35;83.13
23261;BME280;11799;47.740;-3.390;2023-02-13T06:06:51;102986.91;;;3.33;83.12
23261;BME280;11799;47.740;-3.390;2023-02-13T06:09:16;102994.75;;;3.31;82.89
23261;BME280;11799;47.740;-3.390;2023-02-13T06:11:42;102993.06;;;3.27;82.93
23261;BME280;11799;47.740;-3.390;2023-02-13T06:14:07;102994.78;;;3.29;82.66
23261;BME280;11799;47.740;-3.390;2023-02-13T06:16:33;102996.50;;;3.32;83.33
23261;BME280;11799;47.740;-3.390;2023-02-13T06:18:59;102987.84;;;3.28;82.62
23261;BME280;11799;47.740;-3.390;2023-02-13T06:21:25;102988.72;;;3.27;82.81
23261;BME280;11799;47.740;-3.390;2023-02-13T06:23:50;102992.19;;;3.28;82.77
23261;BME280;11799;47.740;-3.390;2023-02-13T06:26:16;102993.06;;;3.28;82.92
23261;BME280;11799;47.740;-3.390;2023-02-13T06:28:41;102987.03;;;3.22;82.98
23261;BME280;11799;47.740;-3.390;2023-02-13T06:31:07;102979.22;;;3.20;83.00
23261;BME280;11799;47.740;-3.390;2023-02-13T06:33:33;102982.75;;;3.16;83.06
23261;BME280;11799;47.740;-3.390;2023-02-13T06:35:58;102988.84;;;3.18;82.96
23261;BME280;11799;47.740;-3.390;2023-02-13T06:38:24;102992.31;;;3.19;83.29
23261;BME280;11799;47.740;-3.390;2023-02-13T06:40:50;103000.09;;;3.22;83.38
23261;BME280;11799;47.740;-3.390;2023-02-13T06:43:15;102988.84;;;3.18;82.93
23261;BME280;11799;47.740;-3.390;2023-02-13T06:45:42;102994.91;;;3.19;82.73
23261;BME280;11799;47.740;-3.390;2023-02-13T06:48:08;102992.31;;;3.17;82.70
23261;BME280;11799;47.740;-3.390;2023-02-13T06:50:34;102991.50;;;3.14;83.25
23261;BME280;11799;47.740;-3.390;2023-02-13T06:53:00;102991.44;;;3.20;83.27
23261;BME280;11799;47.740;-3.390;2023-02-13T06:55:26;102997.59;;;3.14;83.10
23261;BME280;11799;47.740;-3.390;2023-02-13T06:57:52;103005.47;;;3.10;82.89
23261;BME280;11799;47.740;-3.390;2023-02-13T07:00:18;103001.97;;;3.11;83.13
23261;BME280;11799;47.740;-3.390;2023-02-13T07:02:45;103002.84;;;3.11;82.76
23261;BME280;11799;47.740;-3.390;2023-02-13T07:05:11;103000.31;;;3.05;82.80
23261;BME280;11799;47.740;-3.390;2023-02-13T07:07:38;103004.63;;;3.08;83.19
23261;BME280;11799;47.740;-3.390;2023-02-13T07:10:07;103002.91;;;3.05;83.48
23261;BME280;11799;47.740;-3.390;2023-02-13T07:12:34;102999.41;;;3.06;83.33
23261;BME280;11799;47.740;-3.390;2023-02-13T07:15:02;103008.16;;;3.04;83.27
23261;BME280;11799;47.740;-3.390;2023-02-13T07:17:27;103014.25;;;3.03;83.00
23261;BME280;11799;47.740;-3.390;2023-02-13T07:19:53;103019.50;;;3.01;83.08
23261;BME280;11799;47.740;-3.390;2023-02-13T07:22:18;103010.78;;;3.01;83.13
23261;BME280;11799;47.740;-3.390;2023-02-13T07:24:44;103007.38;;;2.95;83.61
23261;BME280;11799;47.740;-3.390;2023-02-13T07:27:10;103007.34;;;2.97;83.45
23261;BME280;11799;47.740;-3.390;2023-02-13T07:29:35;103015.19;;;2.95;83.57
23261;BME280;11799;47.740;-3.390;2023-02-13T07:32:01;103009.97;;;2.97;83.18
23261;BME280;11799;47.740;-3.390;2023-02-13T07:34:26;103013.38;;;3.02;83.00
23261;BME280;11799;47.740;-3.390;2023-02-13T07:36:52;103017.81;;;2.95;83.45
23261;BME280;11799;47.740;-3.390;2023-02-13T07:39:17;103020.38;;;3.00;83.29
23261;BME280;11799;47.740;-3.390;2023-02-13T07:41:43;103027.28;;;3.04;83.66
23261;BME280;11799;47.740;-3.390;2023-02-13T07:44:09;103026.47;;;2.99;83.48
23261;BME280;11799;47.740;-3.390;2023-02-13T07:46:35;103023.91;;;2.94;83.12
23261;BME280;11799;47.740;-3.390;2023-02-13T07:49:00;103030.84;;;2.95;83.25
23261;BME280;11799;47.740;-3.390;2023-02-13T07:51:26;103037.78;;;2.99;83.34
23261;BME280;11799;47.740;-3.390;2023-02-13T07:53:54;103042.13;;;3.01;83.39
23261;BME280;11799;47.740;-3.390;2023-02-13T07:56:19;103038.63;;;3.02;83.32
23261;BME280;11799;47.740;-3.390;2023-02-13T07:58:45;103043.81;;;3.03;83.40
23261;BME280;11799;47.740;-3.390;2023-02-13T08:01:13;103049.94;;;3.01;83.29
23261;BME280;11799;47.740;-3.390;2023-02-13T08:03:40;103040.34;;;3.03;83.62
23261;BME280;11799;47.740;-3.390;2023-02-13T08:06:06;103040.28;;;3.09;83.61
23261;BME280;11799;47.740;-3.390;2023-02-13T08:08:32;103045.47;;;3.12;83.38
23261;BME280;11799;47.740;-3.390;2023-02-13T08:11:04;103058.53;;;3.12;83.38
23261;BME280;11799;47.740;-3.390;2023-02-13T08:13:49;103053.34;;;3.09;83.41
23261;BME280;11799;47.740;-3.390;2023-02-13T08:16:15;103057.66;;;3.13;83.30
23261;BME280;11799;47.740;-3.390;2023-02-13T08:18:40;103053.25;;;3.16;83.47
23261;BME280;11799;47.740;-3.390;2023-02-13T08:21:06;103052.31;;;3.23;83.77
23261;BME280;11799;47.740;-3.390;2023-02-13T08:23:31;103055.78;;;3.24;83.63
23261;BME280;11799;47.740;-3.390;2023-02-13T08:26:01;103054.81;;;3.33;83.53
23261;BME280;11799;47.740;-3.390;2023-02-13T08:28:28;103057.19;;;3.49;83.21
23261;BME280;11799;47.740;-3.390;2023-02-13T08:30:54;103050.09;;;3.60;83.51
23261;BME280;11799;47.740;-3.390;2023-02-13T08:33:19;103056.84;;;3.75;83.04
23261;BME280;11799;47.740;-3.390;2023-02-13T08:35:45;103060.19;;;3.86;82.14
23261;BME280;11799;47.740;-3.390;2023-02-13T08:38:11;103049.38;;;4.08;82.61
23261;BME280;11799;47.740;-3.390;2023-02-13T08:40:36;103040.41;;;4.24;82.31
23261;BME280;11799;47.740;-3.390;2023-02-13T08:43:03;103035.88;;;4.35;81.36
23261;BME280;11799;47.740;-3.390;2023-02-13T08:45:30;103038.34;;;4.44;80.14
23261;BME280;11799;47.740;-3.390;2023-02-13T08:47:57;103035.53;;;4.56;80.28
23261;BME280;11799;47.740;-3.390;2023-02-13T08:50:24;103037.97;;;4.64;78.93
23261;BME280;11799;47.740;-3.390;2023-02-13T08:52:50;103042.03;;;4.80;79.77
23261;BME280;11799;47.740;-3.390;2023-02-13T08:55:16;103047.22;;;4.83;78.69
23261;BME280;11799;47.740;-3.390;2023-02-13T08:57:41;103039.22;;;4.91;78.11
23261;BME280;11799;47.740;-3.390;2023-02-13T09:00:08;103029.38;;;5.04;78.78
23261;BME280;11799;47.740;-3.390;2023-02-13T09:02:33;103032.69;;;5.13;77.95
23261;BME280;11799;47.740;-3.390;2023-02-13T09:04:59;103026.47;;;5.19;77.03
23261;BME280;11799;47.740;-3.390;2023-02-13T09:07:24;103024.59;;;5.24;76.72
23261;BME280;11799;47.740;-3.390;2023-02-13T09:09:50;103021.78;;;5.33;76.57
23261;BME280;11799;47.740;-3.390;2023-02-13T09:12:16;103020.78;;;5.39;76.29
23261;BME280;11799;47.740;-3.390;2023-02-13T09:14:41;103023.41;;;5.39;75.64
23261;BME280;11799;47.740;-3.390;2023-02-13T09:17:07;103036.50;;;5.39;75.22
23261;BME280;11799;47.740;-3.390;2023-02-13T09:19:33;103041.47;;;5.52;75.62
23261;BME280;11799;47.740;-3.390;2023-02-13T09:21:58;103031.63;;;5.63;76.16
23261;BME280;11799;47.740;-3.390;2023-02-13T09:24:24;103043.59;;;5.75;76.08
23261;BME280;11799;47.740;-3.390;2023-02-13T09:26:50;103045.97;;;5.84;75.97
23261;BME280;11799;47.740;-3.390;2023-02-13T09:29:16;103047.69;;;5.87;74.96
23261;BME280;11799;47.740;-3.390;2023-02-13T09:31:41;103032.72;;;5.92;75.00
23261;BME280;11799;47.740;-3.390;2023-02-13T09:34:07;103042.13;;;6.02;74.66
23261;BME280;11799;47.740;-3.390;2023-02-13T09:36:32;103041.97;;;6.08;74.54
23261;BME280;11799;47.740;-3.390;2023-02-13T09:38:58;103041.91;;;6.11;73.99
23261;BME280;11799;47.740;-3.390;2023-02-13T09:41:29;103035.50;;;6.23;74.83
23261;BME280;11799;47.740;-3.390;2023-02-13T09:44:03;103039.75;;;6.28;74.57
23261;BME280;11799;47.740;-3.390;2023-02-13T09:49:04;103037.69;;;6.40;74.10
23261;BME280;11799;47.740;-3.390;2023-02-13T09:51:32;103035.66;;;6.51;74.49
23261;BME280;11799;47.740;-3.390;2023-02-13T09:54:02;103033.69;;;6.59;73.88
23261;BME280;11799;47.740;-3.390;2023-02-13T09:56:49;103040.47;;;6.68;73.10
23261;BME280;11799;47.740;-3.390;2023-02-13T10:08:29;103029.63;;;7.11;71.84
23261;BME280;11799;47.740;-3.390;2023-02-13T10:11:28;103024.03;;;7.23;72.81
23261;BME280;11799;47.740;-3.390;2023-02-13T10:14:31;103029.75;;;7.37;71.46
23261;BME280;11799;47.740;-3.390;2023-02-13T10:17:09;103029.59;;;7.43;71.94
23261;BME280;11799;47.740;-3.390;2023-02-13T10:19:42;103026.59;;;7.54;72.52
23261;BME280;11799;47.740;-3.390;2023-02-13T10:22:18;103019.44;;;7.59;71.11
23261;BME280;11799;47.740;-3.390;2023-02-13T10:27:26;103026.06;;;7.72;72.03
23261;BME280;11799;47.740;-3.390;2023-02-13T10:30:25;103018.88;;;7.77;71.44
23261;BME280;11799;47.740;-3.390;2023-02-13T10:33:17;103027.31;;;7.88;70.82
23261;BME280;11799;47.740;-3.390;2023-02-13T10:36:02;103012.28;;;7.92;70.68
23261;BME280;11799;47.740;-3.390;2023-02-13T10:38:32;103012.94;;;7.99;71.35
23261;BME280;11799;47.740;-3.390;2023-02-13T10:46:21;103013.00;;;8.23;70.39
23261;BME280;11799;47.740;-3.390;2023-02-13T10:54:27;103012.06;;;8.52;70.59
23261;BME280;11799;47.740;-3.390;2023-02-13T10:57:12;103003.03;;;8.59;69.47
23261;BME280;11799;47.740;-3.390;2023-02-13T10:59:58;103006.91;;;8.73;69.60
23261;BME280;11799;47.740;-3.390;2023-02-13T11:02:29;103006.88;;;8.74;69.53
23261;BME280;11799;47.740;-3.390;2023-02-13T11:07:38;103015.09;;;8.90;70.17
23261;BME280;11799;47.740;-3.390;2023-02-13T11:10:12;103012.13;;;8.99;69.99
23261;BME280;11799;47.740;-3.390;2023-02-13T11:12:39;103014.44;;;9.08;70.66
23261;BME280;11799;47.740;-3.390;2023-02-13T11:15:08;103020.56;;;9.09;69.91
23261;BME280;11799;47.740;-3.390;2023-02-13T11:17:44;103006.13;;;9.19;70.01
23261;BME280;11799;47.740;-3.390;2023-02-13T11:20:34;103010.28;;;9.24;70.60
23261;BME280;11799;47.740;-3.390;2023-02-13T11:23:32;103017.03;;;9.32;70.25
23261;BME280;11799;47.740;-3.390;2023-02-13T11:26:02;103033.28;;;9.44;69.47
23261;BME280;11799;47.740;-3.390;2023-02-13T11:28:29;103012.13;;;9.46;69.03
23261;BME280;11799;47.740;-3.390;2023-02-13T11:33:39;103008.88;;;9.61;70.27
23261;BME280;11799;47.740;-3.390;2023-02-13T11:36:09;103008.53;;;9.70;70.56
23261;BME280;11799;47.740;-3.390;2023-02-13T11:38:37;103004.75;;;9.77;70.91
23261;BME280;11799;47.740;-3.390;2023-02-13T11:41:13;103007.72;;;9.90;70.86
23261;BME280;11799;47.740;-3.390;2023-02-13T11:43:54;103013.19;;;10.07;71.49
23261;BME280;11799;47.740;-3.390;2023-02-13T11:46:27;103004.22;;;10.11;71.36
23261;BME280;11799;47.740;-3.390;2023-02-13T11:49:00;103013.31;;;10.26;72.33
23261;BME280;11799;47.740;-3.390;2023-02-13T11:51:44;103002.94;;;10.42;71.20
23261;BME280;11799;47.740;-3.390;2023-02-13T11:56:54;103000.50;;;10.57;71.60
23261;BME280;11799;47.740;-3.390;2023-02-13T11:59:24;102990.41;;;10.67;71.62
23261;BME280;11799;47.740;-3.390;2023-02-13T12:02:12;102987.50;;;10.73;71.03
23261;BME280;11799;47.740;-3.390;2023-02-13T12:04:39;102982.94;;;10.77;71.03
23261;BME280;11799;47.740;-3.390;2023-02-13T12:09:38;102974.34;;;10.72;70.13
23261;BME280;11799;47.740;-3.390;2023-02-13T12:12:04;102977.38;;;10.63;70.02
23261;BME280;11799;47.740;-3.390;2023-02-13T12:14:39;102976.53;;;10.62;70.42
23261;BME280;11799;47.740;-3.390;2023-02-13T12:17:21;102974.81;;;10.61;70.73
23261;BME280;11799;47.740;-3.390;2023-02-13T12:19:49;102970.44;;;10.60;71.63
23261;BME280;11799;47.740;-3.390;2023-02-13T12:25:24;102964.69;;;10.50;71.73
23261;BME280;11799;47.740;-3.390;2023-02-13T12:39:33;102968.34;;;10.28;73.81
23261;BME280;11799;47.740;-3.390;2023-02-13T12:47:29;102952.78;;;10.21;74.74
23261;BME280;11799;47.740;-3.390;2023-02-13T12:52:47;102944.84;;;10.21;74.66
23261;BME280;11799;47.740;-3.390;2023-02-13T13:12:29;102940.84;;;10.33;75.38
23261;BME280;11799;47.740;-3.390;2023-02-13T13:26:27;102941.00;;;10.49;76.71
23261;BME280;11799;47.740;-3.390;2023-02-13T13:29:04;102932.00;;;10.53;76.31
23261;BME280;11799;47.740;-3.390;2023-02-13T13:31:33;102937.22;;;10.54;76.46
23261;BME280;11799;47.740;-3.390;2023-02-13T13:34:04;102936.50;;;10.51;76.50
23261;BME280;11799;47.740;-3.390;2023-02-13T13:36:39;102931.28;;;10.49;77.34
23261;BME280;11799;47.740;-3.390;2023-02-13T13:42:12;102920.66;;;10.51;77.38
23261;BME280;11799;47.740;-3.390;2023-02-13T13:44:55;102919.66;;;10.53;77.70
23261;BME280;11799;47.740;-3.390;2023-02-13T13:50:29;102917.88;;;10.54;78.97
23261;BME280;11799;47.740;-3.390;2023-02-13T13:58:24;102912.66;;;10.52;79.59
23261;BME280;11799;47.740;-3.390;2023-02-13T14:03:59;102905.47;;;10.56;80.15
23261;BME280;11799;47.740;-3.390;2023-02-13T14:11:51;102899.25;;;10.57;80.43
23261;BME280;11799;47.740;-3.390;2023-02-13T14:16:56;102896.47;;;10.60;80.77
23261;BME280;11799;47.740;-3.390;2023-02-13T14:19:32;102899.91;;;10.62;81.40
23261;BME280;11799;47.740;-3.390;2023-02-13T14:25:23;102899.03;;;10.62;81.91
23261;BME280;11799;47.740;-3.390;2023-02-13T14:27:57;102905.13;;;10.64;81.64
23261;BME280;11799;47.740;-3.390;2023-02-13T14:30:35;102901.56;;;10.65;82.15
23261;BME280;11799;47.740;-3.390;2023-02-13T14:33:05;102905.91;;;10.66;81.88
23261;BME280;11799;47.740;-3.390;2023-02-13T14:35:36;102902.34;;;10.67;82.38
23261;BME280;11799;47.740;-3.390;2023-02-13T14:38:05;102908.34;;;10.70;82.53
23261;BME280;11799;47.740;-3.390;2023-02-13T14:45:49;102909.28;;;10.69;82.71
23261;BME280;11799;47.740;-3.390;2023-02-13T14:48:19;102908.34;;;10.70;82.87
23261;BME280;11799;47.740;-3.390;2023-02-13T14:50:49;102904.84;;;10.70;82.72
23261;BME280;11799;47.740;-3.390;2023-02-13T14:53:23;102900.34;;;10.72;83.05
23261;BME280;11799;47.740;-3.390;2023-02-13T14:56:13;102899.41;;;10.73;82.95
23261;BME280;11799;47.740;-3.390;2023-02-13T14:59:21;102893.28;;;10.72;83.15
23261;BME280;11799;47.740;-3.390;2023-02-13T15:02:01;102902.84;;;10.75;82.90
23261;BME280;11799;47.740;-3.390;2023-02-13T15:04:40;102899.22;;;10.77;83.60
23261;BME280;11799;47.740;-3.390;2023-02-13T15:07:14;102905.28;;;10.79;83.58
23261;BME280;11799;47.740;-3.390;2023-02-13T15:09:45;102895.72;;;10.77;83.91
23261;BME280;11799;47.740;-3.390;2023-02-13T15:14:51;102900.84;;;10.80;83.71
23261;BME280;11799;47.740;-3.390;2023-02-13T15:17:23;102899.00;;;10.82;83.75
23261;BME280;11799;47.740;-3.390;2023-02-13T15:19:52;102905.78;;;10.87;84.35
23261;BME280;11799;47.740;-3.390;2023-02-13T15:24:47;102894.16;;;10.91;84.10
23261;BME280;11799;47.740;-3.390;2023-02-13T15:27:25;102906.44;;;10.93;84.27
23261;BME280;11799;47.740;-3.390;2023-02-13T15:32:31;102902.81;;;10.95;84.17
23261;BME280;11799;47.740;-3.390;2023-02-13T15:34:57;102901.16;;;10.93;84.44
23261;BME280;11799;47.740;-3.390;2023-02-13T15:37:27;102908.09;;;10.95;84.59
23261;BME280;11799;47.740;-3.390;2023-02-13T15:39:53;102901.94;;;10.95;84.81
23261;BME280;11799;47.740;-3.390;2023-02-13T15:42:19;102902.56;;;11.00;84.93
23261;BME280;11799;47.740;-3.390;2023-02-13T15:44:50;102917.50;;;11.01;84.98